Portada
METAR-TAF:

METAR-TAF

Aeroports :

Joplin Regional Airport

Joplin, Missouri, Estats Units d'Amèrica

latitud: 37-09-22N, longitud: 094-30-02W, altitud: 299 m

Observació

L'informe es va fer fa 34 minuts, a les 12:53 UTC
Vent calma
Temperatura 17°C
Humitat 77%
Pressió 1023 hPa
Visibilitat: 16.1 km
Cel clar

METAR: KJLN 301253Z 00000KT 10SM CLR 17/13 A3022 RMK AO2 SLP227 T01670133

Hora: 08:27 (13:27 UTC)

Pronòstic

L'informe es va fer fa 2 hores i 7 minuts, a les 11:20 UTC
Pronòstic vàlid del 30 a les 12 UTC al 31 a les 12 UTC
Vent 5 kt amb direcció variable
Visibilitat: 10 km
Cel clar

TAF: KJLN 301120Z 3012/3112 VRB05KT P6SM SKC

Observacions i pronòstics meteorològics de més de 4000 aeroports (METAR i TAF).

Les estacions disponibles són els punts grocs i vermells al mapa.

Posi el ratolí al punt desitjat per veure el nom de l'estació.

Feu clic per veure les observacions i els pronòstics meteorològics.

Per canviar el mapa: feu clic els botons verds amb una creu de color negre per apropar; al botó verd amb un guió per allunyar la imatge; o en les fletxes verdes per a mapes adjacents.


METAR-TAF: